Charlton, MA (01507)

5:14 AM EDT on September 05, 2015 (GMT -0400)
Buffumville West | | Change Station
CLOSE
Current Station
Personal Weather Station
Location: Charlton, MA
Elevation: 669 ft
Nearby Weather Stations

Elev 669 ft 42.12 °N, 71.92 °W | Updated 16 seconds ago

Clear
Clear
54.2 °F
Feels Like 54.2 °F
N
0.0
Wind Variable Wind from NNE
Gusts 1.6 mph

Today
High -- | Low -- °F
--% Chance of Precip.
Yesterday
High -- | Low -- °F
Precip. -- in
6:17 AM 7:15 PM
Waning Gibbous, 50% visible
Pressure 30.27 in
Visibility 10.0 miles
Clouds Clear
Dew Point 40 °F
Humidity 58%
Rainfall 0.00 in
Snow Depth Not available.
UV 0 out of 12
Pollen 8.70 out of 12
Air Quality Not available.
Flu Activity Not available.
METAR KORH 050854Z AUTO 36003KT 10SM CLR 13/08 A3027 RMK AO2 SLP249 T01280078 53001
Pressure 30.27 in
Visibility 10.0 miles
Clouds Clear
Dew Point 40 °F
Humidity 58%
Rainfall 0.00 in
Snow Depth Not available.
UV 0 out of 12
Pollen 8.70 out of 12
Air Quality Not available.
Flu Activity Not available.
METAR KORH 050854Z AUTO 36003KT 10SM CLR 13/08 A3027 RMK AO2 SLP249 T01280078 53001

10-Day Weather Forecast

×

Almanac

Astronomy

Sep. 05, 2015 Rise Set
Actual Time
Civil Twilight
Nautical Twilight
Astronomical Twilight
Moon
Length of Visible Light
Length of Day
Tomorrow will be .
, % of the Moon is Illuminated

Today's Extremes

State Highs State Lows

Community

WunderPhotos

Upload Photos

1,852,440 photos uploaded!

WunderBlogs® & News

Nearby

Air Quality

  Air Quality AQ Index Pollutant
Not available.

Snow Depth

Station Depth Elevation

Earthquake Activity

City Distance Mag. Time & Date
Minimum magnitude displayed is 2.5.

Coastal Water Temperatures

Place Temperature

Stations

Nearby Weather Stations

Station Location Temp. Windchill Dew Point Humidity Wind Precip. Elev Updated Type